Ida — C4CZ2 — position and weather

sailwx.info

Track history (hours):
 
Tides and Currents Weather Stations Pressure Air Temp Water Temp Dewpoint Dewpoint Depression Visibility Wind Speed Wind Dir Waves Ship Positions

Ida

Last reported at 2015-Sep-04 16:32 UTC. Time now 2015-Sep-04 16:37 UTC.
Position N 53°31' E 009°57'.

Length 82 m; draft 3.9 m.

Type: Cargo ship. MMSI: 210319000.

Date/timePositionNaut miles runAvg speedWind from/ knotsBaromVisibWave heightAir tempDewpointWater temp
2015-Sep-04 16:32N 53°31' E 009°57'0 0.0
2015-Sep-04 15:29N 53°31' E 009°57'0 0.0
2015-Sep-04 14:29N 53°31' E 009°57'0 0.0
2015-Sep-04 13:32N 53°31' E 009°57'0 0.0
2015-Sep-04 12:23N 53°31' E 009°57'0 0.0
2015-Sep-04 11:29N 53°31' E 009°57'0 0.0
2015-Sep-04 10:33N 53°31' E 009°57'0 0.0
2015-Sep-04 09:33N 53°31' E 009°57'2 2.2
2015-Sep-04 08:33N 53°32' E 009°54'6 5.8
2015-Sep-04 07:33N 53°34' E 009°44'7 7.1
2015-Sep-04 06:33N 53°37' E 009°33'0 0.0
2015-Sep-03 19:32N 53°37' E 009°33'0 0.1
2015-Sep-03 18:26N 53°37' E 009°33'0 0.0
2015-Sep-03 17:32N 53°37' E 009°33'0 0.0
2015-Sep-03 00:14N 53°37' E 009°33'0 0.0
2015-Sep-02 21:08N 53°37' E 009°33'0 0.0
2015-Sep-02 17:29N 53°37' E 009°33'0 0.0
2015-Sep-02 08:14N 53°37' E 009°33'1 2.1
2015-Sep-02 07:33N 53°36' E 009°35'9 8.9
2015-Sep-02 06:34N 53°33' E 009°49'5 4.6
2015-Sep-02 05:31N 53°31' E 009°57'0 0.0
2015-Sep-02 04:31N 53°31' E 009°57'0 0.0
2015-Sep-02 03:31N 53°31' E 009°57'0 0.0
2015-Sep-02 02:31N 53°31' E 009°57'0 0.0
2015-Sep-02 01:31N 53°31' E 009°57'0 0.0
2015-Sep-02 00:31N 53°31' E 009°57'0 0.0
2015-Sep-01 23:31N 53°31' E 009°57'0 0.0
2015-Sep-01 22:31N 53°31' E 009°57'0 0.0
2015-Sep-01 21:31N 53°31' E 009°57'0 0.0
2015-Sep-01 20:31N 53°31' E 009°57'0 0.0
2015-Sep-01 19:31N 53°31' E 009°57'3 2.9
2015-Sep-01 18:33N 53°33' E 009°52'7 6.5
2015-Sep-01 17:33N 53°34' E 009°42'6 0.3
2015-Sep-01 00:33N 53°37' E 009°33'9 8.6
2015-Aug-31 23:34N 53°44' E 009°26'9 8.9
2015-Aug-31 22:33N 53°52' E 009°18'7 7.1
2015-Aug-31 21:33N 53°52' E 009°06'5 5.5
2015-Aug-31 20:33N 53°51' E 008°57'5 5.4
2015-Aug-31 19:34N 53°50' E 008°48'5 4.9
2015-Aug-31 18:34N 53°54' E 008°42'5 4.6
2015-Aug-31 17:34N 53°57' E 008°37'6 5.7
2015-Aug-31 16:33N 53°59' E 008°27'6 6.3
2015-Aug-31 15:33N 53°59' E 008°17'7 6.9
2015-Aug-31 14:33N 53°60' E 008°05'8 8.2
2015-Aug-31 13:34N 54°04' E 007°53'9 8.7
2015-Aug-31 12:34N 54°08' E 007°40'8 7.9
2015-Aug-31 11:33N 54°14' E 007°31'9 9.0
2015-Aug-31 10:34N 54°23' E 007°29'9 9.1
2015-Aug-31 09:33N 54°32' E 007°28'9 8.9
2015-Aug-31 08:33N 54°41' E 007°26'9 9.1
2015-Aug-31 07:33N 54°50' E 007°24'9 8.8
2015-Aug-31 06:33N 54°59' E 007°22'9 8.6
2015-Aug-31 05:33N 55°07' E 007°21'9 8.5
2015-Aug-31 04:34N 55°16' E 007°19'8 8.5
2015-Aug-31 03:34N 55°24' E 007°17'8 8.4
2015-Aug-31 02:33N 55°32' E 007°16'9 8.6
2015-Aug-31 01:32N 55°41' E 007°19'  
2015-Aug-28 07:33N 55°40' E 007°18'8 8.0
2015-Aug-28 06:33N 55°32' E 007°16'8 7.9
2015-Aug-28 05:33N 55°24' E 007°17'8 7.9
2015-Aug-28 04:33N 55°16' E 007°19'8 8.1
2015-Aug-28 03:33N 55°09' E 007°21'8 8.3
2015-Aug-28 02:33N 55°00' E 007°23'9 8.5
2015-Aug-28 01:33N 54°52' E 007°25'9 8.6
2015-Aug-28 00:31N 54°43' E 007°27'8 8.8
2015-Aug-27 23:33N 54°35' E 007°29'9 8.6
2015-Aug-27 22:33N 54°26' E 007°31'8 8.4
2015-Aug-27 21:33N 54°18' E 007°32'7 7.3
2015-Aug-27 20:33N 54°11' E 007°36'6 6.2
2015-Aug-27 19:33N 54°08' E 007°46'6 5.7
2015-Aug-27 18:33N 54°05' E 007°54'5 5.4
2015-Aug-27 17:34N 54°03' E 008°02'6 5.7
2015-Aug-27 16:32N 54°01' E 008°12'7 7.3
2015-Aug-27 15:33N 53°60' E 008°24'10 9.7
2015-Aug-27 14:34N 53°57' E 008°39'10 9.9
2015-Aug-27 13:33N 53°51' E 008°53'9 9.4
2015-Aug-27 12:33N 53°53' E 009°08'7 7.4
2015-Aug-27 11:33N 53°51' E 009°20'7 6.8
2015-Aug-27 10:33N 53°45' E 009°26'6 6.1
2015-Aug-27 09:34N 53°40' E 009°31'6 5.9
2015-Aug-27 08:30N 53°35' E 009°38'6 6.7
2015-Aug-27 07:34N 53°33' E 009°48'6 5.6
2015-Aug-27 06:34N 53°31' E 009°57'0 0.0
2015-Aug-27 05:33N 53°31' E 009°57'0 0.0
2015-Aug-27 04:30N 53°31' E 009°57'0 0.0
2015-Aug-27 03:33N 53°31' E 009°57'0 0.0
2015-Aug-27 02:33N 53°31' E 009°57'0 0.0
2015-Aug-27 01:33N 53°31' E 009°57'0 0.0
2015-Aug-27 00:32N 53°31' E 009°57'1 1.5
2015-Aug-26 23:34N 53°33' E 009°56'1 1.1
2015-Aug-26 22:32N 53°32' E 009°58'0 0.0
2015-Aug-26 21:20N 53°32' E 009°58'0 0.0
2015-Aug-26 20:32N 53°32' E 009°58'0 0.0
2015-Aug-26 19:32N 53°32' E 009°58'0 0.0
2015-Aug-26 18:32N 53°32' E 009°58'0 0.0
2015-Aug-26 17:32N 53°32' E 009°58'0 0.0
2015-Aug-26 16:32N 53°32' E 009°58'0 0.0
2015-Aug-26 15:32N 53°32' E 009°58'0 0.0
2015-Aug-26 14:32N 53°32' E 009°58'0 0.0
2015-Aug-26 13:29N 53°32' E 009°58'0 0.0
2015-Aug-26 12:32N 53°32' E 009°58'0 0.0
2015-Aug-26 11:32N 53°32' E 009°58'0 0.0
2015-Aug-26 10:32N 53°32' E 009°58'0 0.0
2015-Aug-26 09:32N 53°32' E 009°58'0 0.0
2015-Aug-26 08:29N 53°32' E 009°58'0 0.0
2015-Aug-26 07:26N 53°32' E 009°58'0 0.0
2015-Aug-26 06:33N 53°32' E 009°58'0 0.2
2015-Aug-26 05:33N 53°32' E 009°57'1 1.0
2015-Aug-26 04:33N 53°31' E 009°57'0 0.0
2015-Aug-26 03:33N 53°31' E 009°57'0 0.0
2015-Aug-26 02:33N 53°31' E 009°57'0 0.0
2015-Aug-26 01:33N 53°31' E 009°57'0 0.0
2015-Aug-26 00:33N 53°31' E 009°57'0 0.0
2015-Aug-25 23:33N 53°31' E 009°57'0 0.1
2015-Aug-25 22:34N 53°31' E 009°57'0 0.0
2015-Aug-25 21:33N 53°31' E 009°57'0 0.0
2015-Aug-25 20:31N 53°31' E 009°57'0 0.0
2015-Aug-25 19:31N 53°31' E 009°57'0 0.0
2015-Aug-25 18:31N 53°31' E 009°57'0 0.0
2015-Aug-25 17:31N 53°31' E 009°57'  
Track history (hours):
 
Tides and Currents Weather Stations Pressure Air Temp Water Temp Dewpoint Dewpoint Depression Visibility Wind Speed Wind Dir Waves Ship Positions

Ida

Last reported at 2015-Sep-04 16:32 UTC. Time now 2015-Sep-04 16:37 UTC.
Position N 53°31' E 009°57'.

Length 82 m; draft 3.9 m.

Type: Cargo ship. MMSI: 210319000.

Date/timePositionNaut miles runAvg speedWind from/ knotsBaromVisibWave heightAir tempDewpointWater temp
2015-Sep-04 16:32N 53°31' E 009°57'0 0.0
2015-Sep-04 15:29N 53°31' E 009°57'0 0.0
2015-Sep-04 14:29N 53°31' E 009°57'0 0.0
2015-Sep-04 13:32N 53°31' E 009°57'0 0.0
2015-Sep-04 12:23N 53°31' E 009°57'0 0.0
2015-Sep-04 11:29N 53°31' E 009°57'0 0.0
2015-Sep-04 10:33N 53°31' E 009°57'0 0.0
2015-Sep-04 09:33N 53°31' E 009°57'2 2.2
2015-Sep-04 08:33N 53°32' E 009°54'6 5.8
2015-Sep-04 07:33N 53°34' E 009°44'7 7.1
2015-Sep-04 06:33N 53°37' E 009°33'0 0.0
2015-Sep-03 19:32N 53°37' E 009°33'0 0.1
2015-Sep-03 18:26N 53°37' E 009°33'0 0.0
2015-Sep-03 17:32N 53°37' E 009°33'0 0.0
2015-Sep-03 00:14N 53°37' E 009°33'0 0.0
2015-Sep-02 21:08N 53°37' E 009°33'0 0.0
2015-Sep-02 17:29N 53°37' E 009°33'0 0.0
2015-Sep-02 08:14N 53°37' E 009°33'1 2.1
2015-Sep-02 07:33N 53°36' E 009°35'9 8.9
2015-Sep-02 06:34N 53°33' E 009°49'5 4.6
2015-Sep-02 05:31N 53°31' E 009°57'0 0.0
2015-Sep-02 04:31N 53°31' E 009°57'0 0.0
2015-Sep-02 03:31N 53°31' E 009°57'0 0.0
2015-Sep-02 02:31N 53°31' E 009°57'0 0.0
2015-Sep-02 01:31N 53°31' E 009°57'0 0.0
2015-Sep-02 00:31N 53°31' E 009°57'0 0.0
2015-Sep-01 23:31N 53°31' E 009°57'0 0.0
2015-Sep-01 22:31N 53°31' E 009°57'0 0.0
2015-Sep-01 21:31N 53°31' E 009°57'0 0.0
2015-Sep-01 20:31N 53°31' E 009°57'0 0.0
2015-Sep-01 19:31N 53°31' E 009°57'3 2.9
2015-Sep-01 18:33N 53°33' E 009°52'7 6.5
2015-Sep-01 17:33N 53°34' E 009°42'6 0.3
2015-Sep-01 00:33N 53°37' E 009°33'9 8.6
2015-Aug-31 23:34N 53°44' E 009°26'9 8.9
2015-Aug-31 22:33N 53°52' E 009°18'7 7.1
2015-Aug-31 21:33N 53°52' E 009°06'5 5.5
2015-Aug-31 20:33N 53°51' E 008°57'5 5.4
2015-Aug-31 19:34N 53°50' E 008°48'5 4.9
2015-Aug-31 18:34N 53°54' E 008°42'5 4.6
2015-Aug-31 17:34N 53°57' E 008°37'6 5.7
2015-Aug-31 16:33N 53°59' E 008°27'6 6.3
2015-Aug-31 15:33N 53°59' E 008°17'7 6.9
2015-Aug-31 14:33N 53°60' E 008°05'8 8.2
2015-Aug-31 13:34N 54°04' E 007°53'9 8.7
2015-Aug-31 12:34N 54°08' E 007°40'8 7.9
2015-Aug-31 11:33N 54°14' E 007°31'9 9.0
2015-Aug-31 10:34N 54°23' E 007°29'9 9.1
2015-Aug-31 09:33N 54°32' E 007°28'9 8.9
2015-Aug-31 08:33N 54°41' E 007°26'9 9.1
2015-Aug-31 07:33N 54°50' E 007°24'9 8.8
2015-Aug-31 06:33N 54°59' E 007°22'9 8.6
2015-Aug-31 05:33N 55°07' E 007°21'9 8.5
2015-Aug-31 04:34N 55°16' E 007°19'8 8.5
2015-Aug-31 03:34N 55°24' E 007°17'8 8.4
2015-Aug-31 02:33N 55°32' E 007°16'9 8.6
2015-Aug-31 01:32N 55°41' E 007°19'  
2015-Aug-28 07:33N 55°40' E 007°18'8 8.0
2015-Aug-28 06:33N 55°32' E 007°16'8 7.9
2015-Aug-28 05:33N 55°24' E 007°17'8 7.9
2015-Aug-28 04:33N 55°16' E 007°19'8 8.1
2015-Aug-28 03:33N 55°09' E 007°21'8 8.3
2015-Aug-28 02:33N 55°00' E 007°23'9 8.5
2015-Aug-28 01:33N 54°52' E 007°25'9 8.6
2015-Aug-28 00:31N 54°43' E 007°27'8 8.8
2015-Aug-27 23:33N 54°35' E 007°29'9 8.6
2015-Aug-27 22:33N 54°26' E 007°31'8 8.4
2015-Aug-27 21:33N 54°18' E 007°32'7 7.3
2015-Aug-27 20:33N 54°11' E 007°36'6 6.2
2015-Aug-27 19:33N 54°08' E 007°46'6 5.7
2015-Aug-27 18:33N 54°05' E 007°54'5 5.4
2015-Aug-27 17:34N 54°03' E 008°02'6 5.7
2015-Aug-27 16:32N 54°01' E 008°12'7 7.3
2015-Aug-27 15:33N 53°60' E 008°24'10 9.7
2015-Aug-27 14:34N 53°57' E 008°39'10 9.9
2015-Aug-27 13:33N 53°51' E 008°53'9 9.4
2015-Aug-27 12:33N 53°53' E 009°08'7 7.4
2015-Aug-27 11:33N 53°51' E 009°20'7 6.8
2015-Aug-27 10:33N 53°45' E 009°26'6 6.1
2015-Aug-27 09:34N 53°40' E 009°31'6 5.9
2015-Aug-27 08:30N 53°35' E 009°38'6 6.7
2015-Aug-27 07:34N 53°33' E 009°48'6 5.6
2015-Aug-27 06:34N 53°31' E 009°57'0 0.0
2015-Aug-27 05:33N 53°31' E 009°57'0 0.0
2015-Aug-27 04:30N 53°31' E 009°57'0 0.0
2015-Aug-27 03:33N 53°31' E 009°57'0 0.0
2015-Aug-27 02:33N 53°31' E 009°57'0 0.0
2015-Aug-27 01:33N 53°31' E 009°57'0 0.0
2015-Aug-27 00:32N 53°31' E 009°57'1 1.5
2015-Aug-26 23:34N 53°33' E 009°56'1 1.1
2015-Aug-26 22:32N 53°32' E 009°58'0 0.0
2015-Aug-26 21:20N 53°32' E 009°58'0 0.0
2015-Aug-26 20:32N 53°32' E 009°58'0 0.0
2015-Aug-26 19:32N 53°32' E 009°58'0 0.0
2015-Aug-26 18:32N 53°32' E 009°58'0 0.0
2015-Aug-26 17:32N 53°32' E 009°58'0 0.0
2015-Aug-26 16:32N 53°32' E 009°58'0 0.0
2015-Aug-26 15:32N 53°32' E 009°58'0 0.0
2015-Aug-26 14:32N 53°32' E 009°58'0 0.0
2015-Aug-26 13:29N 53°32' E 009°58'0 0.0
2015-Aug-26 12:32N 53°32' E 009°58'0 0.0
2015-Aug-26 11:32N 53°32' E 009°58'0 0.0
2015-Aug-26 10:32N 53°32' E 009°58'0 0.0
2015-Aug-26 09:32N 53°32' E 009°58'0 0.0
2015-Aug-26 08:29N 53°32' E 009°58'0 0.0
2015-Aug-26 07:26N 53°32' E 009°58'0 0.0
2015-Aug-26 06:33N 53°32' E 009°58'0 0.2
2015-Aug-26 05:33N 53°32' E 009°57'1 1.0
2015-Aug-26 04:33N 53°31' E 009°57'0 0.0
2015-Aug-26 03:33N 53°31' E 009°57'0 0.0
2015-Aug-26 02:33N 53°31' E 009°57'0 0.0
2015-Aug-26 01:33N 53°31' E 009°57'0 0.0
2015-Aug-26 00:33N 53°31' E 009°57'0 0.0
2015-Aug-25 23:33N 53°31' E 009°57'0 0.1
2015-Aug-25 22:34N 53°31' E 009°57'0 0.0
2015-Aug-25 21:33N 53°31' E 009°57'0 0.0
2015-Aug-25 20:31N 53°31' E 009°57'0 0.0
2015-Aug-25 19:31N 53°31' E 009°57'0 0.0
2015-Aug-25 18:31N 53°31' E 009°57'0 0.0
2015-Aug-25 17:31N 53°31' E 009°57'  

Dump ship's entire track history